sensor_id;sensor_type;location;lat;lon;timestamp;P1;durP1;ratioP1;P2;durP2;ratioP2
38083;SDS011;23894;51.466;7.444;2022-12-20T00:01:47;9.63;;;3.38;;
38083;SDS011;23894;51.466;7.444;2022-12-20T00:03:48;8.32;;;3.78;;
38083;SDS011;23894;51.466;7.444;2022-12-20T00:05:50;7.32;;;3.75;;
38083;SDS011;23894;51.466;7.444;2022-12-20T00:07:51;6.78;;;3.10;;
38083;SDS011;23894;51.466;7.444;2022-12-20T00:09:52;5.97;;;3.10;;
38083;SDS011;23894;51.466;7.444;2022-12-20T00:11:53;5.95;;;3.38;;
38083;SDS011;23894;51.466;7.444;2022-12-20T00:13:54;5.57;;;2.88;;
38083;SDS011;23894;51.466;7.444;2022-12-20T00:16:12;7.45;;;3.28;;
38083;SDS011;23894;51.466;7.444;2022-12-20T00:18:13;6.90;;;3.00;;
38083;SDS011;23894;51.466;7.444;2022-12-20T00:20:14;6.38;;;3.25;;
38083;SDS011;23894;51.466;7.444;2022-12-20T00:24:16;6.13;;;2.83;;
38083;SDS011;23894;51.466;7.444;2022-12-20T00:26:18;6.90;;;3.08;;
38083;SDS011;23894;51.466;7.444;2022-12-20T00:28:19;6.82;;;3.20;;
38083;SDS011;23894;51.466;7.444;2022-12-20T00:30:20;5.68;;;3.20;;
38083;SDS011;23894;51.466;7.444;2022-12-20T00:32:21;5.68;;;2.88;;
38083;SDS011;23894;51.466;7.444;2022-12-20T00:34:22;6.15;;;2.75;;
38083;SDS011;23894;51.466;7.444;2022-12-20T00:36:24;5.65;;;2.85;;
38083;SDS011;23894;51.466;7.444;2022-12-20T00:38:26;5.22;;;2.70;;
38083;SDS011;23894;51.466;7.444;2022-12-20T00:40:27;6.30;;;2.85;;
38083;SDS011;23894;51.466;7.444;2022-12-20T00:42:30;6.18;;;3.05;;
38083;SDS011;23894;51.466;7.444;2022-12-20T00:44:31;7.15;;;2.95;;
38083;SDS011;23894;51.466;7.444;2022-12-20T00:46:31;5.47;;;3.10;;
38083;SDS011;23894;51.466;7.444;2022-12-20T00:48:35;7.45;;;3.40;;
38083;SDS011;23894;51.466;7.444;2022-12-20T00:50:36;6.15;;;2.95;;
38083;SDS011;23894;51.466;7.444;2022-12-20T00:52:37;5.65;;;2.58;;
38083;SDS011;23894;51.466;7.444;2022-12-20T00:54:38;6.15;;;3.05;;
38083;SDS011;23894;51.466;7.444;2022-12-20T00:56:39;6.60;;;3.00;;
38083;SDS011;23894;51.466;7.444;2022-12-20T00:58:41;6.70;;;3.30;;
38083;SDS011;23894;51.466;7.444;2022-12-20T01:00:42;5.68;;;2.90;;
38083;SDS011;23894;51.466;7.444;2022-12-20T01:02:43;7.72;;;2.95;;
38083;SDS011;23894;51.466;7.444;2022-12-20T01:04:44;4.95;;;2.53;;
38083;SDS011;23894;51.466;7.444;2022-12-20T01:06:45;6.55;;;2.75;;
38083;SDS011;23894;51.466;7.444;2022-12-20T01:08:46;4.70;;;2.60;;
38083;SDS011;23894;51.466;7.444;2022-12-20T01:13:08;6.87;;;2.97;;
38083;SDS011;23894;51.466;7.444;2022-12-20T01:15:09;6.47;;;3.00;;
38083;SDS011;23894;51.466;7.444;2022-12-20T01:17:10;5.38;;;3.10;;
38083;SDS011;23894;51.466;7.444;2022-12-20T01:19:12;7.32;;;3.10;;
38083;SDS011;23894;51.466;7.444;2022-12-20T01:21:14;6.13;;;2.88;;
38083;SDS011;23894;51.466;7.444;2022-12-20T01:23:15;5.53;;;3.00;;
38083;SDS011;23894;51.466;7.444;2022-12-20T01:25:16;8.68;;;3.03;;
38083;SDS011;23894;51.466;7.444;2022-12-20T01:27:17;8.10;;;3.17;;
38083;SDS011;23894;51.466;7.444;2022-12-20T01:29:18;4.85;;;2.63;;
38083;SDS011;23894;51.466;7.444;2022-12-20T01:31:20;6.93;;;2.75;;
38083;SDS011;23894;51.466;7.444;2022-12-20T01:33:21;6.15;;;2.80;;
38083;SDS011;23894;51.466;7.444;2022-12-20T01:35:22;6.93;;;2.60;;
38083;SDS011;23894;51.466;7.444;2022-12-20T01:37:23;7.30;;;2.83;;
38083;SDS011;23894;51.466;7.444;2022-12-20T01:39:23;6.50;;;3.28;;
38083;SDS011;23894;51.466;7.444;2022-12-20T01:41:25;7.82;;;3.20;;
38083;SDS011;23894;51.466;7.444;2022-12-20T01:45:46;6.53;;;3.03;;
38083;SDS011;23894;51.466;7.444;2022-12-20T01:47:47;5.45;;;3.10;;
38083;SDS011;23894;51.466;7.444;2022-12-20T01:49:48;5.68;;;3.22;;
38083;SDS011;23894;51.466;7.444;2022-12-20T01:51:54;6.20;;;3.03;;
38083;SDS011;23894;51.466;7.444;2022-12-20T01:53:59;6.47;;;3.00;;
38083;SDS011;23894;51.466;7.444;2022-12-20T01:56:02;6.35;;;3.00;;
38083;SDS011;23894;51.466;7.444;2022-12-20T01:58:04;6.85;;;2.85;;
38083;SDS011;23894;51.466;7.444;2022-12-20T02:00:08;7.55;;;2.90;;
38083;SDS011;23894;51.466;7.444;2022-12-20T02:02:10;6.00;;;3.00;;
38083;SDS011;23894;51.466;7.444;2022-12-20T02:04:11;7.97;;;3.00;;
38083;SDS011;23894;51.466;7.444;2022-12-20T02:06:14;5.80;;;3.22;;
38083;SDS011;23894;51.466;7.444;2022-12-20T02:08:17;6.63;;;3.33;;
38083;SDS011;23894;51.466;7.444;2022-12-20T02:10:20;5.50;;;2.70;;
38083;SDS011;23894;51.466;7.444;2022-12-20T02:12:24;8.75;;;2.97;;
38083;SDS011;23894;51.466;7.444;2022-12-20T02:16:53;8.05;;;3.00;;
38083;SDS011;23894;51.466;7.444;2022-12-20T02:19:50;6.78;;;3.10;;
38083;SDS011;23894;51.466;7.444;2022-12-20T02:25:41;5.90;;;3.33;;
38083;SDS011;23894;51.466;7.444;2022-12-20T02:27:47;6.05;;;3.25;;
38083;SDS011;23894;51.466;7.444;2022-12-20T02:31:56;8.25;;;3.30;;
38083;SDS011;23894;51.466;7.444;2022-12-20T02:33:58;5.88;;;3.38;;
38083;SDS011;23894;51.466;7.444;2022-12-20T02:36:01;7.47;;;3.63;;
38083;SDS011;23894;51.466;7.444;2022-12-20T02:38:03;9.00;;;3.53;;
38083;SDS011;23894;51.466;7.444;2022-12-20T02:40:07;6.70;;;3.38;;
38083;SDS011;23894;51.466;7.444;2022-12-20T02:42:10;7.32;;;3.38;;
38083;SDS011;23894;51.466;7.444;2022-12-20T02:44:13;6.70;;;3.05;;
38083;SDS011;23894;51.466;7.444;2022-12-20T02:46:35;5.68;;;3.10;;
38083;SDS011;23894;51.466;7.444;2022-12-20T02:48:36;5.45;;;3.25;;
38083;SDS011;23894;51.466;7.444;2022-12-20T02:50:42;8.05;;;3.60;;
38083;SDS011;23894;51.466;7.444;2022-12-20T02:52:45;6.00;;;3.40;;
38083;SDS011;23894;51.466;7.444;2022-12-20T02:54:46;6.78;;;3.30;;
38083;SDS011;23894;51.466;7.444;2022-12-20T02:56:59;5.57;;;3.22;;
38083;SDS011;23894;51.466;7.444;2022-12-20T02:59:03;7.50;;;3.28;;
38083;SDS011;23894;51.466;7.444;2022-12-20T03:01:10;7.93;;;3.10;;
38083;SDS011;23894;51.466;7.444;2022-12-20T03:03:14;6.38;;;3.80;;
38083;SDS011;23894;51.466;7.444;2022-12-20T03:05:22;5.35;;;3.20;;
38083;SDS011;23894;51.466;7.444;2022-12-20T03:07:23;5.70;;;3.20;;
38083;SDS011;23894;51.466;7.444;2022-12-20T03:09:24;6.63;;;3.63;;
38083;SDS011;23894;51.466;7.444;2022-12-20T03:11:25;7.38;;;3.45;;
38083;SDS011;23894;51.466;7.444;2022-12-20T03:13:26;6.60;;;3.33;;
38083;SDS011;23894;51.466;7.444;2022-12-20T03:15:27;6.93;;;4.20;;
38083;SDS011;23894;51.466;7.444;2022-12-20T03:17:30;7.55;;;3.80;;
38083;SDS011;23894;51.466;7.444;2022-12-20T03:19:31;8.60;;;4.07;;
38083;SDS011;23894;51.466;7.444;2022-12-20T03:21:31;7.35;;;3.78;;
38083;SDS011;23894;51.466;7.444;2022-12-20T03:23:32;8.00;;;3.75;;
38083;SDS011;23894;51.466;7.444;2022-12-20T03:25:33;7.28;;;3.65;;
38083;SDS011;23894;51.466;7.444;2022-12-20T03:27:34;6.88;;;3.45;;
38083;SDS011;23894;51.466;7.444;2022-12-20T03:29:35;7.68;;;3.83;;
38083;SDS011;23894;51.466;7.444;2022-12-20T03:31:37;7.18;;;3.63;;
38083;SDS011;23894;51.466;7.444;2022-12-20T03:33:39;7.82;;;4.40;;
38083;SDS011;23894;51.466;7.444;2022-12-20T03:35:40;6.43;;;3.33;;
38083;SDS011;23894;51.466;7.444;2022-12-20T03:37:41;7.07;;;3.85;;
38083;SDS011;23894;51.466;7.444;2022-12-20T03:39:43;8.75;;;3.72;;
38083;SDS011;23894;51.466;7.444;2022-12-20T03:41:45;11.13;;;3.45;;
38083;SDS011;23894;51.466;7.444;2022-12-20T03:43:46;7.60;;;3.65;;
38083;SDS011;23894;51.466;7.444;2022-12-20T03:45:47;7.63;;;3.70;;
38083;SDS011;23894;51.466;7.444;2022-12-20T03:47:48;7.47;;;3.70;;
38083;SDS011;23894;51.466;7.444;2022-12-20T03:49:49;6.38;;;3.40;;
38083;SDS011;23894;51.466;7.444;2022-12-20T03:51:50;7.90;;;3.78;;
38083;SDS011;23894;51.466;7.444;2022-12-20T03:53:51;10.15;;;4.00;;
38083;SDS011;23894;51.466;7.444;2022-12-20T03:55:52;6.45;;;3.28;;
38083;SDS011;23894;51.466;7.444;2022-12-20T03:57:55;6.22;;;3.40;;
38083;SDS011;23894;51.466;7.444;2022-12-20T03:59:56;8.15;;;3.53;;
38083;SDS011;23894;51.466;7.444;2022-12-20T04:03:58;11.13;;;3.90;;
38083;SDS011;23894;51.466;7.444;2022-12-20T04:05:59;5.93;;;3.28;;
38083;SDS011;23894;51.466;7.444;2022-12-20T04:08:00;7.35;;;3.88;;
38083;SDS011;23894;51.466;7.444;2022-12-20T04:10:03;6.43;;;3.30;;
38083;SDS011;23894;51.466;7.444;2022-12-20T04:12:04;6.97;;;3.35;;
38083;SDS011;23894;51.466;7.444;2022-12-20T04:16:09;9.23;;;3.90;;
38083;SDS011;23894;51.466;7.444;2022-12-20T04:18:10;7.80;;;3.85;;
38083;SDS011;23894;51.466;7.444;2022-12-20T04:20:13;7.40;;;4.05;;
38083;SDS011;23894;51.466;7.444;2022-12-20T04:22:20;7.55;;;3.33;;
38083;SDS011;23894;51.466;7.444;2022-12-20T04:24:21;6.90;;;3.35;;
38083;SDS011;23894;51.466;7.444;2022-12-20T04:26:22;7.55;;;3.35;;
38083;SDS011;23894;51.466;7.444;2022-12-20T04:28:23;6.47;;;3.45;;
38083;SDS011;23894;51.466;7.444;2022-12-20T04:30:24;7.38;;;3.60;;
38083;SDS011;23894;51.466;7.444;2022-12-20T04:32:25;8.60;;;3.88;;
38083;SDS011;23894;51.466;7.444;2022-12-20T04:34:26;8.68;;;3.85;;
38083;SDS011;23894;51.466;7.444;2022-12-20T04:36:27;8.38;;;3.92;;
38083;SDS011;23894;51.466;7.444;2022-12-20T04:38:29;7.78;;;3.80;;
38083;SDS011;23894;51.466;7.444;2022-12-20T04:40:30;7.13;;;3.78;;
38083;SDS011;23894;51.466;7.444;2022-12-20T04:42:31;7.05;;;3.70;;
38083;SDS011;23894;51.466;7.444;2022-12-20T04:44:32;8.27;;;3.95;;
38083;SDS011;23894;51.466;7.444;2022-12-20T04:46:32;6.13;;;3.40;;
38083;SDS011;23894;51.466;7.444;2022-12-20T04:48:34;8.68;;;4.15;;
38083;SDS011;23894;51.466;7.444;2022-12-20T04:50:35;9.07;;;3.70;;
38083;SDS011;23894;51.466;7.444;2022-12-20T04:52:36;6.70;;;3.60;;
38083;SDS011;23894;51.466;7.444;2022-12-20T04:54:55;7.25;;;3.72;;
38083;SDS011;23894;51.466;7.444;2022-12-20T04:56:56;6.82;;;3.92;;
38083;SDS011;23894;51.466;7.444;2022-12-20T04:58:58;7.60;;;4.07;;
38083;SDS011;23894;51.466;7.444;2022-12-20T05:00:59;8.02;;;4.00;;
38083;SDS011;23894;51.466;7.444;2022-12-20T05:03:00;7.97;;;4.07;;
38083;SDS011;23894;51.466;7.444;2022-12-20T05:05:01;7.28;;;3.90;;
38083;SDS011;23894;51.466;7.444;2022-12-20T05:07:02;8.13;;;4.30;;
38083;SDS011;23894;51.466;7.444;2022-12-20T05:09:03;7.60;;;4.30;;
38083;SDS011;23894;51.466;7.444;2022-12-20T05:11:04;6.88;;;4.40;;
38083;SDS011;23894;51.466;7.444;2022-12-20T05:13:08;8.10;;;4.50;;
38083;SDS011;23894;51.466;7.444;2022-12-20T05:15:09;11.00;;;4.82;;
38083;SDS011;23894;51.466;7.444;2022-12-20T05:17:10;7.93;;;4.45;;
38083;SDS011;23894;51.466;7.444;2022-12-20T05:19:11;8.82;;;4.65;;
38083;SDS011;23894;51.466;7.444;2022-12-20T05:21:13;11.02;;;4.68;;
38083;SDS011;23894;51.466;7.444;2022-12-20T05:23:33;8.55;;;4.72;;
38083;SDS011;23894;51.466;7.444;2022-12-20T05:25:53;9.05;;;4.65;;
38083;SDS011;23894;51.466;7.444;2022-12-20T05:28:13;7.97;;;4.32;;
38083;SDS011;23894;51.466;7.444;2022-12-20T05:30:14;7.90;;;4.70;;
38083;SDS011;23894;51.466;7.444;2022-12-20T05:32:16;7.70;;;4.50;;
38083;SDS011;23894;51.466;7.444;2022-12-20T05:34:17;8.80;;;4.45;;
38083;SDS011;23894;51.466;7.444;2022-12-20T05:36:18;8.45;;;4.60;;
38083;SDS011;23894;51.466;7.444;2022-12-20T05:38:20;9.77;;;4.50;;
38083;SDS011;23894;51.466;7.444;2022-12-20T05:40:21;10.50;;;4.75;;
38083;SDS011;23894;51.466;7.444;2022-12-20T05:42:22;7.93;;;4.15;;
38083;SDS011;23894;51.466;7.444;2022-12-20T05:44:22;8.27;;;4.57;;
38083;SDS011;23894;51.466;7.444;2022-12-20T05:46:23;8.52;;;4.20;;
38083;SDS011;23894;51.466;7.444;2022-12-20T05:48:24;8.32;;;4.30;;
38083;SDS011;23894;51.466;7.444;2022-12-20T05:50:26;9.93;;;5.03;;
38083;SDS011;23894;51.466;7.444;2022-12-20T05:54:27;9.27;;;4.30;;
38083;SDS011;23894;51.466;7.444;2022-12-20T05:58:29;8.43;;;4.13;;
38083;SDS011;23894;51.466;7.444;2022-12-20T06:02:32;7.35;;;4.13;;
38083;SDS011;23894;51.466;7.444;2022-12-20T06:04:33;8.45;;;4.28;;
38083;SDS011;23894;51.466;7.444;2022-12-20T06:06:34;9.30;;;3.97;;
38083;SDS011;23894;51.466;7.444;2022-12-20T06:08:35;8.45;;;4.10;;
38083;SDS011;23894;51.466;7.444;2022-12-20T06:10:36;8.02;;;3.78;;
38083;SDS011;23894;51.466;7.444;2022-12-20T06:12:39;9.00;;;4.18;;
38083;SDS011;23894;51.466;7.444;2022-12-20T06:14:40;9.18;;;4.38;;
38083;SDS011;23894;51.466;7.444;2022-12-20T06:16:41;8.45;;;3.85;;
38083;SDS011;23894;51.466;7.444;2022-12-20T06:18:42;6.82;;;4.07;;
38083;SDS011;23894;51.466;7.444;2022-12-20T06:20:42;7.78;;;3.88;;
38083;SDS011;23894;51.466;7.444;2022-12-20T06:22:49;6.97;;;3.75;;
38083;SDS011;23894;51.466;7.444;2022-12-20T06:24:51;10.43;;;4.18;;
38083;SDS011;23894;51.466;7.444;2022-12-20T06:26:52;8.88;;;3.83;;
38083;SDS011;23894;51.466;7.444;2022-12-20T06:30:56;7.35;;;3.50;;
38083;SDS011;23894;51.466;7.444;2022-12-20T06:32:58;7.28;;;3.78;;
38083;SDS011;23894;51.466;7.444;2022-12-20T06:34:59;7.00;;;3.45;;
38083;SDS011;23894;51.466;7.444;2022-12-20T06:37:00;6.57;;;3.80;;
38083;SDS011;23894;51.466;7.444;2022-12-20T06:39:01;8.35;;;3.97;;
38083;SDS011;23894;51.466;7.444;2022-12-20T06:41:02;6.75;;;3.88;;
38083;SDS011;23894;51.466;7.444;2022-12-20T06:43:03;7.18;;;3.63;;
38083;SDS011;23894;51.466;7.444;2022-12-20T06:45:04;6.80;;;3.70;;
38083;SDS011;23894;51.466;7.444;2022-12-20T06:47:08;7.97;;;3.88;;
38083;SDS011;23894;51.466;7.444;2022-12-20T06:49:09;8.40;;;3.67;;
38083;SDS011;23894;51.466;7.444;2022-12-20T06:51:11;7.30;;;3.35;;
38083;SDS011;23894;51.466;7.444;2022-12-20T06:53:12;7.30;;;3.90;;
38083;SDS011;23894;51.466;7.444;2022-12-20T06:55:13;8.77;;;3.47;;
38083;SDS011;23894;51.466;7.444;2022-12-20T06:57:15;6.43;;;3.53;;
38083;SDS011;23894;51.466;7.444;2022-12-20T06:59:16;7.07;;;3.63;;
38083;SDS011;23894;51.466;7.444;2022-12-20T07:03:18;6.55;;;3.28;;
38083;SDS011;23894;51.466;7.444;2022-12-20T07:05:19;8.93;;;3.70;;
38083;SDS011;23894;51.466;7.444;2022-12-20T07:07:20;7.47;;;3.55;;
38083;SDS011;23894;51.466;7.444;2022-12-20T07:09:21;7.88;;;3.65;;
38083;SDS011;23894;51.466;7.444;2022-12-20T07:11:22;6.38;;;3.58;;
38083;SDS011;23894;51.466;7.444;2022-12-20T07:13:23;6.78;;;3.55;;
38083;SDS011;23894;51.466;7.444;2022-12-20T07:15:24;7.38;;;3.33;;
38083;SDS011;23894;51.466;7.444;2022-12-20T07:17:25;6.00;;;3.35;;
38083;SDS011;23894;51.466;7.444;2022-12-20T07:19:26;6.88;;;3.03;;
38083;SDS011;23894;51.466;7.444;2022-12-20T07:21:27;6.15;;;3.38;;
38083;SDS011;23894;51.466;7.444;2022-12-20T07:23:28;7.35;;;3.70;;
38083;SDS011;23894;51.466;7.444;2022-12-20T07:25:29;7.18;;;3.28;;
38083;SDS011;23894;51.466;7.444;2022-12-20T07:27:30;6.25;;;3.28;;
38083;SDS011;23894;51.466;7.444;2022-12-20T07:29:31;6.93;;;3.45;;
38083;SDS011;23894;51.466;7.444;2022-12-20T07:31:32;7.05;;;3.45;;
38083;SDS011;23894;51.466;7.444;2022-12-20T07:33:33;9.50;;;3.55;;
38083;SDS011;23894;51.466;7.444;2022-12-20T07:35:34;6.80;;;3.25;;
38083;SDS011;23894;51.466;7.444;2022-12-20T07:37:35;7.55;;;3.33;;
38083;SDS011;23894;51.466;7.444;2022-12-20T07:39:36;7.20;;;3.63;;
38083;SDS011;23894;51.466;7.444;2022-12-20T07:41:37;8.05;;;3.50;;
38083;SDS011;23894;51.466;7.444;2022-12-20T07:43:38;6.57;;;3.20;;
38083;SDS011;23894;51.466;7.444;2022-12-20T07:45:39;9.25;;;3.42;;
38083;SDS011;23894;51.466;7.444;2022-12-20T07:47:40;6.35;;;3.50;;
38083;SDS011;23894;51.466;7.444;2022-12-20T07:49:42;6.68;;;3.10;;
38083;SDS011;23894;51.466;7.444;2022-12-20T07:51:44;10.32;;;3.50;;
38083;SDS011;23894;51.466;7.444;2022-12-20T07:53:49;6.13;;;3.67;;
38083;SDS011;23894;51.466;7.444;2022-12-20T07:55:52;7.28;;;3.70;;
38083;SDS011;23894;51.466;7.444;2022-12-20T07:57:56;8.00;;;3.70;;
38083;SDS011;23894;51.466;7.444;2022-12-20T08:00:00;6.43;;;3.28;;
38083;SDS011;23894;51.466;7.444;2022-12-20T08:02:01;7.00;;;3.50;;
38083;SDS011;23894;51.466;7.444;2022-12-20T08:04:07;6.57;;;3.25;;
38083;SDS011;23894;51.466;7.444;2022-12-20T08:06:11;7.68;;;3.17;;
38083;SDS011;23894;51.466;7.444;2022-12-20T08:08:13;6.78;;;3.58;;
38083;SDS011;23894;51.466;7.444;2022-12-20T08:10:15;6.68;;;3.15;;
38083;SDS011;23894;51.466;7.444;2022-12-20T08:12:18;6.88;;;3.53;;
38083;SDS011;23894;51.466;7.444;2022-12-20T08:14:20;7.57;;;3.40;;
38083;SDS011;23894;51.466;7.444;2022-12-20T08:16:21;8.35;;;3.40;;
38083;SDS011;23894;51.466;7.444;2022-12-20T08:18:22;7.18;;;3.20;;
38083;SDS011;23894;51.466;7.444;2022-12-20T08:20:23;8.75;;;3.30;;
38083;SDS011;23894;51.466;7.444;2022-12-20T08:22:24;8.10;;;3.03;;
38083;SDS011;23894;51.466;7.444;2022-12-20T08:24:25;8.20;;;3.35;;
38083;SDS011;23894;51.466;7.444;2022-12-20T08:26:26;6.13;;;2.95;;
38083;SDS011;23894;51.466;7.444;2022-12-20T08:28:27;5.97;;;2.92;;
38083;SDS011;23894;51.466;7.444;2022-12-20T08:30:28;5.68;;;2.97;;
38083;SDS011;23894;51.466;7.444;2022-12-20T08:32:29;8.23;;;3.20;;
38083;SDS011;23894;51.466;7.444;2022-12-20T08:34:30;8.85;;;3.58;;
38083;SDS011;23894;51.466;7.444;2022-12-20T08:36:31;5.57;;;2.88;;
38083;SDS011;23894;51.466;7.444;2022-12-20T08:38:32;7.28;;;3.28;;
38083;SDS011;23894;51.466;7.444;2022-12-20T08:40:34;6.65;;;3.40;;
38083;SDS011;23894;51.466;7.444;2022-12-20T08:42:35;6.65;;;3.30;;
38083;SDS011;23894;51.466;7.444;2022-12-20T08:44:36;7.03;;;3.42;;
38083;SDS011;23894;51.466;7.444;2022-12-20T08:46:38;6.60;;;2.80;;
38083;SDS011;23894;51.466;7.444;2022-12-20T08:48:40;6.40;;;2.97;;
38083;SDS011;23894;51.466;7.444;2022-12-20T08:50:41;6.25;;;2.67;;
38083;SDS011;23894;51.466;7.444;2022-12-20T08:52:42;6.10;;;3.10;;
38083;SDS011;23894;51.466;7.444;2022-12-20T08:54:43;8.73;;;3.00;;
38083;SDS011;23894;51.466;7.444;2022-12-20T08:56:44;7.00;;;3.17;;
38083;SDS011;23894;51.466;7.444;2022-12-20T08:58:46;5.20;;;2.50;;
38083;SDS011;23894;51.466;7.444;2022-12-20T09:02:48;6.20;;;3.00;;
38083;SDS011;23894;51.466;7.444;2022-12-20T09:04:50;5.85;;;2.60;;
38083;SDS011;23894;51.466;7.444;2022-12-20T09:06:52;6.07;;;2.90;;
38083;SDS011;23894;51.466;7.444;2022-12-20T09:08:53;8.10;;;3.00;;
38083;SDS011;23894;51.466;7.444;2022-12-20T09:11:01;4.82;;;2.40;;
38083;SDS011;23894;51.466;7.444;2022-12-20T09:13:02;6.38;;;2.70;;
38083;SDS011;23894;51.466;7.444;2022-12-20T09:15:04;6.85;;;2.72;;
38083;SDS011;23894;51.466;7.444;2022-12-20T09:17:10;6.43;;;2.55;;
38083;SDS011;23894;51.466;7.444;2022-12-20T09:19:12;5.65;;;2.50;;
38083;SDS011;23894;51.466;7.444;2022-12-20T09:21:16;6.85;;;3.00;;
38083;SDS011;23894;51.466;7.444;2022-12-20T09:23:17;5.80;;;2.70;;
38083;SDS011;23894;51.466;7.444;2022-12-20T09:25:18;7.00;;;3.00;;
38083;SDS011;23894;51.466;7.444;2022-12-20T09:27:19;4.95;;;2.60;;
38083;SDS011;23894;51.466;7.444;2022-12-20T09:29:21;4.45;;;2.35;;
38083;SDS011;23894;51.466;7.444;2022-12-20T09:31:23;7.90;;;2.95;;
38083;SDS011;23894;51.466;7.444;2022-12-20T09:33:24;5.68;;;2.70;;
38083;SDS011;23894;51.466;7.444;2022-12-20T09:35:27;6.15;;;2.60;;
38083;SDS011;23894;51.466;7.444;2022-12-20T09:37:29;6.65;;;2.65;;
38083;SDS011;23894;51.466;7.444;2022-12-20T09:39:31;6.22;;;2.88;;
38083;SDS011;23894;51.466;7.444;2022-12-20T09:41:33;5.47;;;2.83;;
38083;SDS011;23894;51.466;7.444;2022-12-20T09:43:36;5.22;;;2.47;;
38083;SDS011;23894;51.466;7.444;2022-12-20T09:45:37;5.72;;;2.78;;
38083;SDS011;23894;51.466;7.444;2022-12-20T09:49:41;6.97;;;2.80;;
38083;SDS011;23894;51.466;7.444;2022-12-20T09:52:00;6.35;;;2.92;;
38083;SDS011;23894;51.466;7.444;2022-12-20T09:56:16;7.10;;;3.10;;
38083;SDS011;23894;51.466;7.444;2022-12-20T10:00:20;6.43;;;3.08;;
38083;SDS011;23894;51.466;7.444;2022-12-20T10:02:22;6.50;;;2.92;;
38083;SDS011;23894;51.466;7.444;2022-12-20T10:04:27;5.30;;;2.85;;
38083;SDS011;23894;51.466;7.444;2022-12-20T10:06:41;4.97;;;2.70;;
38083;SDS011;23894;51.466;7.444;2022-12-20T10:08:44;7.57;;;3.05;;
38083;SDS011;23894;51.466;7.444;2022-12-20T10:13:06;5.93;;;2.90;;
38083;SDS011;23894;51.466;7.444;2022-12-20T10:19:30;7.68;;;2.83;;
38083;SDS011;23894;51.466;7.444;2022-12-20T10:21:40;7.68;;;2.95;;
38083;SDS011;23894;51.466;7.444;2022-12-20T10:25:45;8.13;;;3.28;;
38083;SDS011;23894;51.466;7.444;2022-12-20T10:27:46;8.45;;;3.47;;
38083;SDS011;23894;51.466;7.444;2022-12-20T10:29:48;6.65;;;2.55;;
38083;SDS011;23894;51.466;7.444;2022-12-20T10:31:52;7.72;;;2.80;;
38083;SDS011;23894;51.466;7.444;2022-12-20T10:33:54;6.55;;;2.72;;
38083;SDS011;23894;51.466;7.444;2022-12-20T10:36:16;5.75;;;2.80;;
38083;SDS011;23894;51.466;7.444;2022-12-20T10:38:17;5.88;;;2.50;;
38083;SDS011;23894;51.466;7.444;2022-12-20T10:40:24;5.05;;;2.80;;
38083;SDS011;23894;51.466;7.444;2022-12-20T10:44:36;5.83;;;2.80;;
38083;SDS011;23894;51.466;7.444;2022-12-20T10:48:39;6.30;;;2.90;;
38083;SDS011;23894;51.466;7.444;2022-12-20T10:50:41;5.90;;;2.60;;
38083;SDS011;23894;51.466;7.444;2022-12-20T10:52:42;6.43;;;2.78;;
38083;SDS011;23894;51.466;7.444;2022-12-20T10:54:44;4.88;;;2.40;;
38083;SDS011;23894;51.466;7.444;2022-12-20T10:56:53;6.78;;;2.90;;
38083;SDS011;23894;51.466;7.444;2022-12-20T10:58:58;6.72;;;2.72;;
38083;SDS011;23894;51.466;7.444;2022-12-20T11:03:08;9.25;;;2.80;;
38083;SDS011;23894;51.466;7.444;2022-12-20T11:07:25;5.38;;;2.78;;
38083;SDS011;23894;51.466;7.444;2022-12-20T11:09:33;5.88;;;2.50;;
38083;SDS011;23894;51.466;7.444;2022-12-20T11:11:34;5.63;;;2.30;;
38083;SDS011;23894;51.466;7.444;2022-12-20T11:13:35;4.38;;;2.15;;
38083;SDS011;23894;51.466;7.444;2022-12-20T11:15:36;6.85;;;2.42;;
38083;SDS011;23894;51.466;7.444;2022-12-20T11:17:50;7.50;;;2.58;;
38083;SDS011;23894;51.466;7.444;2022-12-20T11:24:28;5.72;;;2.70;;
38083;SDS011;23894;51.466;7.444;2022-12-20T11:26:37;7.28;;;2.50;;
38083;SDS011;23894;51.466;7.444;2022-12-20T11:35:00;5.85;;;2.47;;
38083;SDS011;23894;51.466;7.444;2022-12-20T11:39:15;5.72;;;2.30;;
38083;SDS011;23894;51.466;7.444;2022-12-20T11:43:45;6.55;;;2.50;;
38083;SDS011;23894;51.466;7.444;2022-12-20T11:52:40;6.13;;;2.60;;
38083;SDS011;23894;51.466;7.444;2022-12-20T11:55:01;7.13;;;2.60;;
38083;SDS011;23894;51.466;7.444;2022-12-20T11:57:09;6.20;;;2.90;;
38083;SDS011;23894;51.466;7.444;2022-12-20T12:01:23;6.28;;;2.33;;
38083;SDS011;23894;51.466;7.444;2022-12-20T12:03:26;5.55;;;2.45;;
38083;SDS011;23894;51.466;7.444;2022-12-20T12:06:02;6.63;;;2.50;;
38083;SDS011;23894;51.466;7.444;2022-12-20T12:07:57;4.88;;;2.20;;
38083;SDS011;23894;51.466;7.444;2022-12-20T12:10:11;6.45;;;2.70;;
38083;SDS011;23894;51.466;7.444;2022-12-20T12:12:26;5.72;;;2.60;;
38083;SDS011;23894;51.466;7.444;2022-12-20T12:14:30;6.65;;;2.47;;
38083;SDS011;23894;51.466;7.444;2022-12-20T12:16:36;6.25;;;2.72;;
38083;SDS011;23894;51.466;7.444;2022-12-20T12:18:39;5.30;;;2.70;;
38083;SDS011;23894;51.466;7.444;2022-12-20T12:20:50;7.00;;;2.53;;
38083;SDS011;23894;51.466;7.444;2022-12-20T12:22:54;5.43;;;2.58;;
38083;SDS011;23894;51.466;7.444;2022-12-20T12:24:58;5.88;;;2.30;;
38083;SDS011;23894;51.466;7.444;2022-12-20T12:27:00;5.45;;;2.35;;
38083;SDS011;23894;51.466;7.444;2022-12-20T12:29:12;8.25;;;2.58;;
38083;SDS011;23894;51.466;7.444;2022-12-20T12:31:15;5.82;;;2.20;;
38083;SDS011;23894;51.466;7.444;2022-12-20T12:33:27;6.65;;;2.75;;
38083;SDS011;23894;51.466;7.444;2022-12-20T12:41:50;6.35;;;2.40;;
38083;SDS011;23894;51.466;7.444;2022-12-20T12:43:59;7.35;;;2.65;;
38083;SDS011;23894;51.466;7.444;2022-12-20T12:48:21;5.68;;;2.92;;
38083;SDS011;23894;51.466;7.444;2022-12-20T12:50:27;7.90;;;3.00;;
38083;SDS011;23894;51.466;7.444;2022-12-20T12:52:42;6.55;;;2.50;;
38083;SDS011;23894;51.466;7.444;2022-12-20T12:54:45;6.03;;;2.30;;
38083;SDS011;23894;51.466;7.444;2022-12-20T12:56:49;6.10;;;2.63;;
38083;SDS011;23894;51.466;7.444;2022-12-20T12:59:18;6.35;;;2.67;;
38083;SDS011;23894;51.466;7.444;2022-12-20T13:03:41;6.53;;;2.85;;
38083;SDS011;23894;51.466;7.444;2022-12-20T13:05:42;6.72;;;2.90;;
38083;SDS011;23894;51.466;7.444;2022-12-20T13:07:43;5.93;;;2.80;;
38083;SDS011;23894;51.466;7.444;2022-12-20T13:11:45;7.28;;;2.72;;
38083;SDS011;23894;51.466;7.444;2022-12-20T13:13:47;5.90;;;2.45;;
38083;SDS011;23894;51.466;7.444;2022-12-20T13:15:49;6.60;;;2.72;;
38083;SDS011;23894;51.466;7.444;2022-12-20T13:17:51;6.55;;;3.00;;
38083;SDS011;23894;51.466;7.444;2022-12-20T13:19:53;6.63;;;2.33;;
38083;SDS011;23894;51.466;7.444;2022-12-20T13:21:55;5.22;;;2.40;;
38083;SDS011;23894;51.466;7.444;2022-12-20T13:24:27;8.57;;;2.67;;
38083;SDS011;23894;51.466;7.444;2022-12-20T13:26:59;5.18;;;2.60;;
38083;SDS011;23894;51.466;7.444;2022-12-20T13:28:42;8.15;;;2.80;;
38083;SDS011;23894;51.466;7.444;2022-12-20T13:30:47;5.90;;;2.30;;
38083;SDS011;23894;51.466;7.444;2022-12-20T13:32:58;7.13;;;2.67;;
38083;SDS011;23894;51.466;7.444;2022-12-20T13:35:10;6.25;;;2.70;;
38083;SDS011;23894;51.466;7.444;2022-12-20T13:37:27;6.40;;;2.58;;
38083;SDS011;23894;51.466;7.444;2022-12-20T13:39:29;5.85;;;2.45;;
38083;SDS011;23894;51.466;7.444;2022-12-20T13:43:35;8.80;;;2.90;;
38083;SDS011;23894;51.466;7.444;2022-12-20T13:45:37;5.43;;;2.33;;
38083;SDS011;23894;51.466;7.444;2022-12-20T13:47:40;6.93;;;2.85;;
38083;SDS011;23894;51.466;7.444;2022-12-20T13:49:43;7.05;;;2.70;;
38083;SDS011;23894;51.466;7.444;2022-12-20T13:55:59;7.35;;;2.90;;
38083;SDS011;23894;51.466;7.444;2022-12-20T14:00:24;6.45;;;2.15;;
38083;SDS011;23894;51.466;7.444;2022-12-20T14:02:29;6.05;;;2.55;;
38083;SDS011;23894;51.466;7.444;2022-12-20T14:04:42;5.68;;;2.60;;